createdAt,value
2018-04-25T00:01:51.396Z,11.53
2018-04-25T00:04:19.253Z,19.63
2018-04-25T00:06:47.109Z,23.97
2018-04-25T00:09:14.972Z,18.87
2018-04-25T00:11:42.760Z,14.77
2018-04-25T00:14:10.660Z,16.77
2018-04-25T00:16:39.251Z,13.97
2018-04-25T00:19:07.821Z,17.77
2018-04-25T00:21:36.951Z,13.20
2018-04-25T00:24:04.783Z,18.07
2018-04-25T00:26:33.383Z,22.63
2018-04-25T00:29:01.176Z,17.97
2018-04-25T00:31:29.039Z,12.93
2018-04-25T00:33:56.813Z,21.13
2018-04-25T00:36:24.599Z,18.90
2018-04-25T00:38:52.390Z,18.97
2018-04-25T00:41:21.036Z,27.83
2018-04-25T00:43:48.945Z,21.53
2018-04-25T00:46:17.601Z,21.20
2018-04-25T00:48:45.460Z,44.53
2018-04-25T00:51:13.330Z,56.43
2018-04-25T00:53:41.141Z,56.10
2018-04-25T00:56:09.031Z,48.27
2018-04-25T00:58:36.961Z,47.17
2018-04-25T01:01:05.612Z,42.63
2018-04-25T01:03:33.503Z,45.60
2018-04-25T01:06:02.115Z,35.50
2018-04-25T01:08:30.004Z,39.47
2018-04-25T01:10:57.892Z,37.87
2018-04-25T01:13:25.796Z,39.83
2018-04-25T01:15:54.449Z,36.10
2018-04-25T01:18:22.343Z,31.47
2018-04-25T01:20:51.008Z,29.23
2018-04-25T01:23:24.509Z,24.23
2018-04-25T01:25:58.740Z,36.17
2018-04-25T01:28:38.251Z,20.97
2018-04-25T01:31:10.768Z,20.00
2018-04-25T01:33:41.422Z,25.27
2018-04-25T01:39:32.909Z,46.20
2018-04-25T01:42:00.795Z,33.83
2018-04-25T01:44:30.160Z,37.87
2018-04-25T01:47:15.560Z,40.90
2018-04-25T01:49:52.179Z,48.17
2018-04-25T01:52:31.812Z,37.67
2018-04-25T01:55:11.471Z,46.03
2018-04-25T01:57:50.967Z,41.50
2018-04-25T02:00:31.418Z,31.47
2018-04-25T02:02:58.652Z,46.70
2018-04-25T02:05:26.432Z,41.63
2018-04-25T02:07:54.207Z,35.33
2018-04-25T02:10:22.771Z,33.87
2018-04-25T02:12:50.559Z,34.60
2018-04-25T02:15:19.096Z,27.20
2018-04-25T02:17:46.888Z,40.80
2018-04-25T02:20:14.679Z,37.43
2018-04-25T02:22:43.272Z,44.20
2018-04-25T02:25:11.140Z,45.60
2018-04-25T02:27:38.940Z,47.17
2018-04-25T02:30:06.753Z,43.77
2018-04-25T02:32:35.308Z,52.10
2018-04-25T02:35:03.147Z,51.43
2018-04-25T02:37:30.998Z,64.57
2018-04-25T02:39:58.790Z,76.33
2018-04-25T02:42:26.594Z,65.13
2018-04-25T02:44:55.148Z,74.03
2018-04-25T02:47:22.945Z,61.03
2018-04-25T02:49:51.503Z,62.40
2018-04-25T02:52:19.288Z,69.93
2018-04-25T02:54:47.843Z,71.43
2018-04-25T02:57:15.656Z,58.23
2018-04-25T02:59:43.433Z,54.60
2018-04-25T03:02:11.230Z,68.53
2018-04-25T03:04:39.026Z,55.47
2018-04-25T03:07:07.584Z,54.03
2018-04-25T03:09:35.365Z,53.10
2018-04-25T03:12:03.135Z,41.47
2018-04-25T03:14:31.697Z,48.37
2018-04-25T03:16:59.484Z,44.90
2018-04-25T03:19:28.041Z,45.43
2018-04-25T03:21:55.883Z,41.73
2018-04-25T03:24:23.667Z,32.00
2018-04-25T03:26:51.476Z,50.17
2018-04-25T03:29:20.030Z,35.10
2018-04-25T03:31:47.833Z,38.03
2018-04-25T03:34:15.621Z,38.00
2018-04-25T03:36:43.419Z,41.67
2018-04-25T03:39:12.006Z,45.30
2018-04-25T03:41:39.815Z,42.77
2018-04-25T03:44:07.599Z,50.27
2018-04-25T03:46:35.383Z,47.53
2018-04-25T03:49:03.180Z,56.13
2018-04-25T03:51:31.756Z,51.53
2018-04-25T03:53:59.551Z,62.80
2018-04-25T03:56:27.340Z,41.93
2018-04-25T03:58:55.148Z,48.97
2018-04-25T04:01:22.935Z,55.23
2018-04-25T04:03:51.475Z,51.53
2018-04-25T04:06:19.268Z,59.87
2018-04-25T04:08:47.853Z,56.63
2018-04-25T04:11:16.478Z,70.80
2018-04-25T04:13:44.307Z,64.23
2018-04-25T04:16:12.851Z,60.77
2018-04-25T04:18:40.660Z,89.77
2018-04-25T04:21:09.222Z,80.97
2018-04-25T04:23:37.016Z,74.53
2018-04-25T04:26:05.585Z,83.37
2018-04-25T04:28:34.229Z,67.40
2018-04-25T04:31:02.028Z,68.73
2018-04-25T04:33:30.589Z,84.57
2018-04-25T04:35:58.367Z,89.90
2018-04-25T04:38:26.163Z,100.97
2018-04-25T04:40:53.953Z,91.97
2018-04-25T04:43:22.519Z,81.63
2018-04-25T04:45:50.304Z,89.10
2018-04-25T04:48:18.145Z,92.70
2018-04-25T04:50:45.932Z,85.57
2018-04-25T04:53:13.750Z,86.68
2018-04-25T04:55:42.312Z,95.87
2018-04-25T04:58:10.096Z,74.50
2018-04-25T05:00:38.696Z,72.87
2018-04-25T05:03:07.344Z,67.13
2018-04-25T05:05:35.128Z,69.30
2018-04-25T05:08:02.932Z,65.17
2018-04-25T05:10:30.723Z,76.30
2018-04-25T05:12:58.541Z,50.97
2018-04-25T05:15:26.337Z,66.60
2018-04-25T05:17:54.152Z,59.77
2018-04-25T05:20:22.738Z,57.27
2018-04-25T05:22:51.331Z,59.50
2018-04-25T05:25:19.898Z,62.17
2018-04-25T05:27:47.678Z,58.43
2018-04-25T05:30:16.269Z,81.37
2018-04-25T05:32:44.872Z,62.00
2018-04-25T05:35:12.648Z,64.73
2018-04-25T05:37:40.468Z,66.00
2018-04-25T05:40:09.027Z,67.80
2018-04-25T05:42:36.814Z,66.40
2018-04-25T05:45:05.446Z,58.80
2018-04-25T05:47:33.250Z,69.50
2018-04-25T05:50:01.035Z,62.43
2018-04-25T05:52:29.595Z,48.30
2018-04-25T05:54:57.384Z,68.03
2018-04-25T05:57:25.964Z,42.53
2018-04-25T05:59:54.535Z,53.83
2018-04-25T06:02:23.119Z,58.17
2018-04-25T06:04:51.664Z,51.10
2018-04-25T06:07:19.460Z,53.30
2018-04-25T06:09:47.252Z,45.70
2018-04-25T06:12:15.052Z,42.33
2018-04-25T06:14:42.879Z,37.93
2018-04-25T06:17:11.452Z,43.47
2018-04-25T06:19:40.028Z,38.83
2018-04-25T06:22:08.642Z,39.43
2018-04-25T06:24:36.537Z,44.70
2018-04-25T06:27:04.353Z,45.53
2018-04-25T06:29:33.014Z,43.90
2018-04-25T06:32:01.619Z,38.07
2018-04-25T06:34:30.173Z,19.47
2018-04-25T06:36:58.028Z,19.00
2018-04-25T06:39:25.941Z,27.37
2018-04-25T06:41:53.735Z,33.13
2018-04-25T06:44:21.522Z,17.87
2018-04-25T06:46:49.311Z,21.90
2018-04-25T06:49:17.107Z,18.23
2018-04-25T06:51:44.913Z,16.93
2018-04-25T06:54:12.692Z,23.10
2018-04-25T06:56:40.496Z,17.10
2018-04-25T06:59:08.298Z,19.73
2018-04-25T07:01:36.105Z,18.07
2018-04-25T07:04:03.905Z,19.10
2018-04-25T07:06:31.703Z,14.63
2018-04-25T07:08:59.489Z,20.03
2018-04-25T07:11:27.275Z,24.80
2018-04-25T07:13:55.853Z,22.13
2018-04-25T07:16:24.419Z,38.53
2018-04-25T07:18:52.209Z,22.40
2018-04-25T07:21:20.118Z,20.63
2018-04-25T07:23:47.925Z,19.63
2018-04-25T07:26:15.729Z,27.43
2018-04-25T07:28:43.520Z,18.20
2018-04-25T07:31:11.367Z,31.97
2018-04-25T07:33:39.815Z,18.70
2018-04-25T07:36:07.604Z,17.60
2018-04-25T07:38:35.428Z,25.67
2018-04-25T07:41:03.213Z,35.43
2018-04-25T07:43:31.772Z,14.13
2018-04-25T07:45:59.560Z,16.47
2018-04-25T07:48:28.200Z,22.05
2018-04-25T07:50:55.995Z,15.73
2018-04-25T07:53:23.785Z,23.33
2018-04-25T07:55:51.577Z,22.13
2018-04-25T07:58:19.351Z,28.37
2018-04-25T08:00:47.136Z,10.10
2018-04-25T08:03:14.908Z,18.67
2018-04-25T08:05:42.689Z,21.73
2018-04-25T08:08:11.231Z,26.83
2018-04-25T08:10:39.018Z,100.57
2018-04-25T08:13:18.457Z,105.53
2018-04-25T08:15:57.992Z,233.13
2018-04-25T08:18:37.533Z,415.03
2018-04-25T08:24:08.286Z,200.57
2018-04-25T08:26:36.133Z,445.77
2018-04-25T08:29:04.039Z,185.83
2018-04-25T08:31:31.934Z,187.13
2018-04-25T08:33:59.728Z,116.63
2018-04-25T08:36:27.512Z,145.67
2018-04-25T08:38:55.375Z,329.53
2018-04-25T08:41:23.168Z,130.57
2018-04-25T08:43:53.562Z,61.30
2018-04-25T08:46:21.404Z,88.83
2018-04-25T08:48:49.196Z,101.30
2018-04-25T08:51:16.984Z,42.77
2018-04-25T08:53:45.571Z,47.60
2018-04-25T08:56:14.129Z,74.20
2018-04-25T08:58:41.913Z,52.40
2018-04-25T09:01:10.504Z,49.43
2018-04-25T09:03:39.056Z,49.87
2018-04-25T09:06:06.929Z,27.30
2018-04-25T09:08:34.707Z,42.50
2018-04-25T09:11:03.288Z,41.00
2018-04-25T09:13:31.872Z,39.00
2018-04-25T09:15:59.651Z,52.73
2018-04-25T09:18:28.890Z,86.60
2018-04-25T09:20:57.491Z,26.87
2018-04-25T09:23:25.267Z,63.93
2018-04-25T09:25:53.052Z,19.33
2018-04-25T09:28:21.613Z,29.23
2018-04-25T09:30:49.465Z,29.67
2018-04-25T09:33:17.240Z,24.63
2018-04-25T09:35:45.029Z,16.93
2018-04-25T09:38:13.589Z,33.07
2018-04-25T09:40:41.409Z,36.20
2018-04-25T09:43:09.196Z,32.27
2018-04-25T09:45:37.003Z,45.93
2018-04-25T09:48:04.801Z,28.47
2018-04-25T09:50:32.649Z,23.13
2018-04-25T09:53:02.158Z,25.30
2018-04-25T09:55:31.015Z,26.70
2018-04-25T10:01:31.416Z,26.87
2018-04-25T10:04:01.026Z,47.20
2018-04-25T10:06:29.537Z,31.43
2018-04-25T10:08:57.331Z,32.67
2018-04-25T10:11:25.120Z,32.23
2018-04-25T10:13:52.905Z,26.30
2018-04-25T10:16:21.459Z,30.77
2018-04-25T10:18:49.255Z,23.70
2018-04-25T10:21:17.917Z,26.57
2018-04-25T10:23:46.399Z,19.87
2018-04-25T10:26:14.181Z,27.90
2018-04-25T10:28:42.780Z,21.30
2018-04-25T10:31:10.585Z,22.23
2018-04-25T10:33:38.386Z,21.43
2018-04-25T10:36:06.951Z,15.60
2018-04-25T10:38:34.756Z,13.83
2018-04-25T10:41:03.376Z,18.17
2018-04-25T10:43:31.144Z,23.20
2018-04-25T10:45:58.919Z,19.67
2018-04-25T10:48:26.703Z,18.03
2018-04-25T10:50:54.484Z,18.83
2018-04-25T10:53:22.276Z,19.17
2018-04-25T10:55:50.069Z,31.60
2018-04-25T10:58:17.856Z,21.20
2018-04-25T11:00:45.644Z,15.73
2018-04-25T11:03:15.015Z,16.60
2018-04-25T11:05:42.861Z,16.93
2018-04-25T11:08:10.709Z,22.30
2018-04-25T11:10:38.539Z,13.70
2018-04-25T11:13:08.108Z,20.13
2018-04-25T11:15:35.917Z,19.87
2018-04-25T11:18:04.549Z,18.77
2018-04-25T11:20:32.332Z,18.23
2018-04-25T11:23:00.125Z,16.10
2018-04-25T11:25:28.685Z,20.60
2018-04-25T11:27:56.475Z,17.13
2018-04-25T11:30:25.463Z,24.97
2018-04-25T11:32:54.154Z,15.50
2018-04-25T11:35:22.733Z,15.83
2018-04-25T11:37:50.525Z,24.10
2018-04-25T11:40:18.320Z,22.77
2018-04-25T11:42:46.139Z,24.97
2018-04-25T11:45:14.729Z,21.23
2018-04-25T11:47:42.532Z,28.20
2018-04-25T11:50:10.384Z,26.50
2018-04-25T11:52:38.169Z,19.20
2018-04-25T11:55:05.972Z,23.77
2018-04-25T11:57:34.558Z,20.10
2018-04-25T12:00:03.148Z,27.17
2018-04-25T12:02:30.952Z,17.13
2018-04-25T12:04:58.759Z,19.10
2018-04-25T12:07:26.536Z,21.33
2018-04-25T12:09:55.270Z,13.40
2018-04-25T12:12:23.039Z,14.97
2018-04-25T12:14:51.686Z,19.20
2018-04-25T12:17:19.461Z,22.53
2018-04-25T12:19:47.316Z,16.73
2018-04-25T12:22:15.220Z,19.00
2018-04-25T12:24:43.004Z,17.83
2018-04-25T12:27:11.693Z,11.20
2018-04-25T12:29:39.476Z,16.37
2018-04-25T12:32:07.299Z,12.47
2018-04-25T12:34:35.109Z,13.60
2018-04-25T12:37:03.663Z,14.17
2018-04-25T12:39:31.451Z,22.20
2018-04-25T12:42:00.078Z,12.40
2018-04-25T12:44:27.871Z,18.87
2018-04-25T12:46:55.695Z,12.20
2018-04-25T12:49:23.494Z,21.83
2018-04-25T12:51:51.271Z,19.90
2018-04-25T12:54:19.100Z,19.40
2018-04-25T12:56:46.876Z,16.37
2018-04-25T12:59:14.674Z,16.53
2018-04-25T13:01:44.853Z,17.13
2018-04-25T13:04:12.676Z,15.73
2018-04-25T13:06:41.213Z,13.50
2018-04-25T13:09:09.089Z,11.47
2018-04-25T13:11:36.835Z,19.13
2018-04-25T13:14:04.784Z,13.70
2018-04-25T13:16:32.569Z,15.97
2018-04-25T13:19:00.341Z,13.97
2018-04-25T13:21:28.121Z,15.70
2018-04-25T13:23:56.762Z,12.10
2018-04-25T13:26:24.609Z,16.30
2018-04-25T13:28:53.235Z,14.53
2018-04-25T13:31:21.018Z,16.20
2018-04-25T13:33:48.822Z,13.30
2018-04-25T13:36:16.643Z,13.83
2018-04-25T13:38:44.423Z,12.40
2018-04-25T13:41:12.204Z,18.70
2018-04-25T13:43:40.024Z,13.83
2018-04-25T13:46:07.887Z,11.10
2018-04-25T13:48:35.716Z,12.13
2018-04-25T13:51:04.297Z,16.07
2018-04-25T13:53:32.841Z,7.63
2018-04-25T13:56:00.626Z,10.70
2018-04-25T13:58:28.414Z,11.60
2018-04-25T14:00:56.949Z,9.70
2018-04-25T14:03:24.771Z,20.60
2018-04-25T14:05:52.567Z,15.77
2018-04-25T14:08:20.385Z,9.37
2018-04-25T14:10:48.257Z,12.43
2018-04-25T14:13:16.796Z,9.57
2018-04-25T14:15:44.828Z,18.77
2018-04-25T14:18:12.630Z,16.77
2018-04-25T14:20:40.460Z,10.23
2018-04-25T14:23:08.273Z,14.27
2018-04-25T14:25:36.314Z,9.13
2018-04-25T14:28:04.119Z,10.90
2018-04-25T14:30:31.908Z,14.30
2018-04-25T14:33:00.473Z,14.00
2018-04-25T14:35:29.062Z,28.37
2018-04-25T14:37:57.609Z,7.60
2018-04-25T14:40:25.431Z,13.10
2018-04-25T14:42:53.212Z,10.97
2018-04-25T14:45:21.018Z,14.37
2018-04-25T14:47:48.816Z,9.50
2018-04-25T14:50:16.604Z,13.93
2018-04-25T14:52:44.416Z,7.50
2018-04-25T14:55:12.207Z,5.73
2018-04-25T14:57:40.086Z,8.20
2018-04-25T15:00:08.145Z,12.10
2018-04-25T15:02:36.712Z,17.07
2018-04-25T15:05:05.273Z,7.83
2018-04-25T15:07:33.063Z,9.00
2018-04-25T15:10:01.605Z,12.83
2018-04-25T15:12:29.398Z,9.23
2018-04-25T15:14:57.973Z,13.67
2018-04-25T15:17:25.849Z,9.43
2018-04-25T15:19:54.476Z,15.33
2018-04-25T15:22:22.276Z,17.03
2018-04-25T15:24:50.069Z,14.77
2018-04-25T15:27:19.281Z,20.33
2018-04-25T15:29:48.052Z,15.40
2018-04-25T15:32:16.635Z,28.53
2018-04-25T15:34:45.212Z,18.53
2018-04-25T15:37:13.798Z,24.27
2018-04-25T15:39:42.260Z,19.03
2018-04-25T15:42:10.055Z,173.17
2018-04-25T15:44:38.603Z,65.83
2018-04-25T15:47:06.397Z,23.57
2018-04-25T15:49:34.960Z,41.60
2018-04-25T15:52:02.748Z,28.60
2018-04-25T15:54:31.297Z,23.37
2018-04-25T15:56:59.091Z,31.10
2018-04-25T15:59:27.644Z,34.10
2018-04-25T16:01:55.441Z,44.23
2018-04-25T16:04:23.998Z,42.60
2018-04-25T16:06:51.790Z,34.50
2018-04-25T16:09:20.345Z,33.17
2018-04-25T16:11:48.133Z,31.27
2018-04-25T16:14:16.684Z,30.80
2018-04-25T16:16:44.516Z,33.23
2018-04-25T16:19:12.292Z,29.77
2018-04-25T16:21:40.080Z,26.93
2018-04-25T16:24:07.912Z,28.93
2018-04-25T16:26:35.683Z,25.40
2018-04-25T16:29:03.471Z,22.70
2018-04-25T16:31:31.264Z,35.50
2018-04-25T16:33:59.810Z,38.63
2018-04-25T16:36:27.664Z,34.17
2018-04-25T16:38:55.511Z,49.47
2018-04-25T16:41:23.324Z,42.27
2018-04-25T16:43:51.112Z,36.80
2018-04-25T16:46:19.715Z,35.70
2018-04-25T16:48:47.516Z,33.53
2018-04-25T16:51:15.287Z,36.30
2018-04-25T16:53:43.072Z,35.40
2018-04-25T16:56:10.907Z,32.93
2018-04-25T16:58:39.519Z,30.67
2018-04-25T17:01:07.296Z,35.07
2018-04-25T17:03:35.084Z,38.97
2018-04-25T17:06:02.890Z,42.73
2018-04-25T17:08:30.680Z,29.33
2018-04-25T17:10:58.480Z,33.63
2018-04-25T17:13:26.256Z,31.93
2018-04-25T17:15:54.046Z,33.20
2018-04-25T17:18:21.838Z,31.50
2018-04-25T17:20:49.664Z,34.50
2018-04-25T17:23:17.455Z,34.53
2018-04-25T17:25:45.234Z,27.70
2018-04-25T17:28:13.020Z,24.33
2018-04-25T17:30:41.594Z,23.83
2018-04-25T17:33:10.140Z,32.03
2018-04-25T17:35:37.916Z,25.70
2018-04-25T17:38:05.732Z,28.67
2018-04-25T17:40:33.503Z,28.63
2018-04-25T17:43:01.293Z,25.80
2018-04-25T17:45:29.174Z,37.00
2018-04-25T17:47:56.990Z,24.57
2018-04-25T17:50:24.790Z,22.93
2018-04-25T17:52:52.566Z,25.73
2018-04-25T17:55:20.362Z,27.87
2018-04-25T17:57:49.026Z,36.60
2018-04-25T18:00:16.812Z,29.37
2018-04-25T18:02:45.362Z,25.73
2018-04-25T18:05:13.224Z,32.27
2018-04-25T18:07:41.010Z,23.10
2018-04-25T18:10:08.809Z,20.17
2018-04-25T18:12:36.603Z,23.27
2018-04-25T18:15:04.765Z,28.13
2018-04-25T18:17:32.540Z,24.10
2018-04-25T18:20:00.369Z,29.17
2018-04-25T18:22:28.938Z,30.70
2018-04-25T18:24:57.530Z,36.37
2018-04-25T18:27:26.082Z,40.67
2018-04-25T18:29:53.867Z,25.57
2018-04-25T18:32:22.436Z,42.17
2018-04-25T18:34:50.237Z,29.07
2018-04-25T18:37:18.038Z,34.37
2018-04-25T18:39:45.823Z,27.50
2018-04-25T18:42:13.621Z,42.70
2018-04-25T18:44:44.665Z,32.23
2018-04-25T18:47:13.230Z,41.60
2018-04-25T18:49:41.824Z,38.43
2018-04-25T18:52:10.407Z,36.37
2018-04-25T18:54:38.984Z,28.93
2018-04-25T18:57:07.587Z,33.97
2018-04-25T18:59:35.445Z,28.03
2018-04-25T19:02:04.098Z,38.80
2018-04-25T19:04:31.973Z,35.23
2018-04-25T19:06:59.868Z,28.37
2018-04-25T19:09:27.718Z,30.10
2018-04-25T19:11:56.325Z,38.90
2018-04-25T19:14:24.217Z,35.23
2018-04-25T19:16:52.052Z,24.57
2018-04-25T19:19:19.868Z,36.43
2018-04-25T19:21:47.764Z,33.47
2018-04-25T19:24:16.923Z,29.07
2018-04-25T19:26:44.793Z,39.13
2018-04-25T19:29:12.612Z,38.23
2018-04-25T19:31:40.537Z,42.10
2018-04-25T19:34:08.436Z,37.37
2018-04-25T19:36:37.055Z,33.30
2018-04-25T19:39:04.866Z,28.83
2018-04-25T19:41:32.789Z,41.33
2018-04-25T19:44:00.614Z,42.63
2018-04-25T19:46:29.247Z,33.33
2018-04-25T19:48:57.068Z,29.80
2018-04-25T19:51:25.659Z,41.80
2018-04-25T19:53:53.471Z,39.63
2018-04-25T19:56:21.280Z,44.87
2018-04-25T19:58:49.892Z,49.80
2018-04-25T20:01:17.891Z,42.27
2018-04-25T20:03:45.752Z,28.80
2018-04-25T20:06:13.556Z,29.23
2018-04-25T20:08:42.185Z,35.60
2018-04-25T20:11:10.139Z,52.53
2018-04-25T20:13:38.004Z,35.47
2018-04-25T20:16:05.823Z,34.00
2018-04-25T20:18:33.656Z,44.23
2018-04-25T20:21:01.456Z,44.20
2018-04-25T20:23:29.268Z,42.90
2018-04-25T20:25:57.063Z,36.77
2018-04-25T20:28:24.855Z,36.83
2018-04-25T20:30:52.647Z,33.57
2018-04-25T20:33:21.213Z,36.37
2018-04-25T20:35:49.799Z,33.03
2018-04-25T20:38:18.360Z,42.67
2018-04-25T20:40:46.160Z,33.00
2018-04-25T20:43:14.730Z,34.20
2018-04-25T20:45:43.389Z,31.10
2018-04-25T20:48:11.181Z,37.53
2018-04-25T20:50:39.723Z,44.17
2018-04-25T20:53:07.550Z,37.03
2018-04-25T20:55:35.365Z,47.50
2018-04-25T20:58:03.194Z,44.67
2018-04-25T21:00:30.997Z,44.33
2018-04-25T21:02:58.800Z,51.03
2018-04-25T21:05:27.372Z,51.30
2018-04-25T21:07:55.990Z,49.00
2018-04-25T21:10:23.888Z,45.27
2018-04-25T21:12:51.676Z,49.70
2018-04-25T21:15:19.549Z,50.30
2018-04-25T21:17:48.118Z,46.23
2018-04-25T21:20:16.758Z,54.50
2018-04-25T21:22:44.549Z,51.23
2018-04-25T21:25:12.363Z,47.33
2018-04-25T21:27:40.184Z,39.47
2018-04-25T21:30:08.705Z,35.97
2018-04-25T21:32:37.403Z,48.47
2018-04-25T21:35:05.233Z,44.03
2018-04-25T21:37:33.028Z,38.63
2018-04-25T21:40:00.813Z,36.83
2018-04-25T21:42:28.611Z,37.47
2018-04-25T21:44:56.427Z,37.47
2018-04-25T21:47:24.212Z,42.90
2018-04-25T21:49:52.060Z,30.43
2018-04-25T21:52:19.934Z,32.03
2018-04-25T21:54:47.712Z,38.07
2018-04-25T21:57:15.504Z,30.30
2018-04-25T21:59:43.284Z,30.97
2018-04-25T22:02:11.135Z,36.83
2018-04-25T22:04:39.000Z,41.40
2018-04-25T22:07:06.792Z,51.67
2018-04-25T22:09:35.348Z,39.00
2018-04-25T22:12:03.136Z,46.43
2018-04-25T22:14:31.695Z,46.40
2018-04-25T22:16:59.550Z,48.35
2018-04-25T22:19:27.347Z,53.33
2018-04-25T22:21:55.127Z,57.20
2018-04-25T22:24:23.680Z,52.97
2018-04-25T22:26:51.493Z,48.20
2018-04-25T22:29:19.395Z,40.63
2018-04-25T22:31:47.208Z,44.30
2018-04-25T22:34:15.003Z,52.90
2018-04-25T22:36:42.836Z,45.03
2018-04-25T22:39:11.426Z,44.93
2018-04-25T22:41:39.972Z,56.40
2018-04-25T22:44:07.768Z,46.67
2018-04-25T22:46:36.307Z,48.57
2018-04-25T22:49:04.172Z,49.07
2018-04-25T22:51:31.949Z,39.63
2018-04-25T22:53:59.747Z,43.73
2018-04-25T22:56:28.287Z,42.83
2018-04-25T22:58:56.077Z,44.07
2018-04-25T23:01:24.628Z,47.43
2018-04-25T23:03:52.421Z,44.63
2018-04-25T23:06:20.199Z,42.17
2018-04-25T23:08:48.764Z,40.73
2018-04-25T23:11:16.566Z,44.23
2018-04-25T23:13:44.364Z,40.83
2018-04-25T23:16:12.136Z,39.00
2018-04-25T23:18:39.943Z,43.83
2018-04-25T23:21:08.498Z,39.63
2018-04-25T23:23:36.287Z,43.63
2018-04-25T23:26:04.925Z,51.77
2018-04-25T23:28:32.737Z,47.80
2018-04-25T23:31:01.295Z,54.90
2018-04-25T23:33:29.075Z,48.80
2018-04-25T23:35:57.628Z,55.47
2018-04-25T23:38:25.436Z,56.03
2018-04-25T23:40:53.983Z,64.63
2018-04-25T23:43:21.781Z,59.17
2018-04-25T23:45:50.376Z,49.90
2018-04-25T23:48:18.177Z,58.13
2018-04-25T23:50:46.092Z,54.27
2018-04-25T23:53:14.691Z,54.22
2018-04-25T23:55:42.487Z,48.60
2018-04-25T23:58:10.272Z,59.83
